KIDA/IDA METAR and TAF weather

Enter ICAO airport designator
Station Type Date Time Source
KIDA METAR 2019/06/19 01:53 UTC NOAA

KIDA 190153Z 24004KT 10SM CLR 21/09 A2998 RMK AO2 SLP119 T02110089


Station Type Date Time Source
KIDA Decoded METAR 2019/06/19 01:53 UTC NOAA

IDAHO FALLS REGIONAL AIRPORT, ID, United States (KIDA) 43-31N 112-04W 1453M
Jun 18, 2019 - 09:53 PM EDT / 2019.06.19 0153 UTC
Wind: from the WSW (240 degrees) at 5 MPH (4 KT):0
Visibility: 10 mile(s):0
Sky conditions: clear
Temperature: 70.0 F (21.1 C)
Dew Point: 48.0 F (8.9 C)
Relative Humidity: 45%
Pressure (altimeter): 29.98 in. Hg (1015 hPa)
ob: KIDA 190153Z 24004KT 10SM CLR 21/09 A2998 RMK AO2 SLP119 T02110089
cycle: 2

Station Type Date Time Source
KIDA TAF 2019/06/19 01:30 UTC NOAA

TAF
AMD KIDA 190127Z 1901/1924 VRB06KT P6SM VCSH BKN070
FM190600 03006KT P6SM BKN080
FM191500 20015G25KT P6SM FEW070
FM191900 22025G35KT P6SM FEW180

Example: see airport list